• Join FlightAware (Why Join?)
  • Login
  • US Flag 
06:05AM EST


 

Airport Tracker/Info


-or-


 

Live Flight TrackerFlight Track Log ✈ TRS9731 ✈ 15-May-2013 ✈ KATL - KVQQ

Flight Track Log - Related Links

Times and Time Zones

All times are in EDT time to prevent confusion due to time zone crossing. See the TRS9731 flight status page for this flight to view local times or setup timezone preferences in your user account.

Time Position Orientation Groundspeed Altitude Reporting Facility
EDT Latitude Longitude Course Direction KTS MPH feet Rate Location/Type
09:14PM 33.6333 -84.4833 140° Southeast 204 235 3,600  Level Atlanta TRACON
09:15PM 33.6333 -84.5667 270° West 264 304 6,600 1,860 Climbing Atlanta TRACON
09:17PM 33.4547 -84.6014 189° South 315 362 10,000 1,680 Climbing Atlanta Center
09:18PM 33.3800 -84.5339 143° Southeast 319 367 12,200 2,520 Climbing Atlanta Center
09:19PM 33.3198 -84.2029 140° Southeast  Level FlightAware Approximate
09:19PM 33.3261 -84.4292 122° Southeast 336 387 15,000  Level Atlanta Center
09:20PM 33.2700 -84.3194 121° Southeast 374 430 17,700 2,580 Climbing Atlanta Center
09:21PM 33.2075 -84.2053 123° Southeast 402 463 20,200 2,640 Climbing Atlanta Center
09:22PM 33.1408 -84.0833 123° Southeast 421 484 23,000 2,700 Climbing Atlanta Center
09:23PM 33.0700 -83.9694 127° Southeast 435 501 25,700 1,500 Climbing Atlanta Center
09:24PM 32.9758 -83.8853 143° Southeast 415 478 26,000 120 Climbing Atlanta Center
09:25PM 32.8778 -83.8039 145° Southeast 426 490 26,000  Level Atlanta Center
09:26PM 32.7814 -83.7250 145° Southeast 426 490 26,000  Level Atlanta Center
09:27PM 32.6853 -83.6439 145° Southeast 426 490 26,000  Level Atlanta Center
09:28PM 32.5953 -83.5531 140° Southeast 421 484 26,000  Level Atlanta Center
09:29PM 32.5050 -83.4625 140° Southeast 421 484 26,000  Level Atlanta Center
09:31PM 32.3767 -83.3328 139° Southeast 439 505 26,000  Level Jacksonville Center
09:32PM 32.2831 -83.2417 141° Southeast 434 499 26,000  Level Jacksonville Center
09:33PM 32.1933 -83.1503 139° Southeast 428 493 26,000  Level Jacksonville Center
09:34PM 32.1039 -83.0642 141° Southeast 428 493 26,000 -540 Level Jacksonville Center
09:35PM 32.0119 -82.9708 139° Southeast 428 493 25,000 -1,500 Descending Jacksonville Center
09:36PM 31.9181 -82.8803 141° Southeast 428 493 23,100 -1,680 Descending Jacksonville Center
09:37PM 31.8283 -82.7922 140° Southeast 428 493 21,700 -1,200 Descending Jacksonville Center
09:38PM 31.7281 -82.7242 150° Southeast 423 487 20,800 -900 Descending Jacksonville Center
09:39PM 31.6297 -82.6583 150° Southeast 418 481 20,000 -780 Descending Jacksonville Center
09:40PM 31.5272 -82.5928 151° Southeast 413 475 19,300 -780 Descending Jacksonville Center
09:41PM 31.4311 -82.5275 150° Southeast 408 470 18,500 -720 Descending Jacksonville Center
09:42PM 31.3347 -82.4694 153° Southeast 400 460 17,900 -660 Descending Jacksonville Center
09:43PM 31.2428 -82.4067 150° Southeast 394 453 17,200 -780 Descending Jacksonville Center
09:43PM 31.1967 -82.3728 148° Southeast 384 442 16,800 -840 Descending Jacksonville Center
09:43PM 31.1694 -82.3558 152° Southeast 383 441 16,600 -1,080 Descending Jacksonville Center
09:44PM 31.1486 -82.3464 159° South 394 453 16,200 -2,100 Descending Jacksonville Center
09:44PM 31.0794 -82.2958 148° Southeast 371 427 14,500 -2,100 Descending Jacksonville Center
09:45PM 31.0586 -82.2864 159° South 388 447 14,100 -2,340 Descending Jacksonville Center
09:45PM 30.9914 -82.2406 150° Southeast 358 412 12,200 -2,100 Descending Jacksonville Center
09:46PM 30.9747 -82.2261 143° Southeast 369 425 12,000 -900 Descending Jacksonville Center
09:47PM 30.9139 -82.1928 155° Southeast 302 348 11,300 -1,020 Descending Jacksonville Center
09:47PM 30.8972 -82.1856 160° South 338 389 11,000 -1,980 Descending Jacksonville Center
09:48PM 30.8322 -82.1547 158° South 291 335 9,300 -2,100 Descending Jacksonville Center
09:49PM 30.7589 -82.1214 159° South 285 328 7,300 -2,040 Descending Jacksonville Center
09:50PM 30.6939 -82.0711 146° Southeast 278 320 5,300 -1,800 Descending Jacksonville Center
09:51PM 30.6164 -82.0189 150° Southeast 282 325 3,400 -1,380 Descending Jacksonville Center
09:52PM 30.5619 -81.9831 150° Southeast 267 307 2,600 -720 Descending Jacksonville Center
09:53PM 30.4947 -81.9356 149° Southeast 261 300 2,100 -300 Descending Jacksonville Center
09:54PM 30.4422 -81.8928 145° Southeast 212 244 2,000 -60 Descending Jacksonville Center
09:55PM 30.3939 -81.8764 164° South 156 180 2,000 -60 Level Jacksonville Center
09:56PM 30.3606 -81.8767 180° South 109 125 1,900 -120 Descending Jacksonville Center
09:57PM 30.3272 -81.8794 184° South 120 138 1,800 -300 Descending Jacksonville Center
09:58PM 30.2958 -81.8772 177° South 112 129 1,300 -600 Descending Jacksonville Center
09:59PM 30.2644 -81.8753 177° South 107 123 700 -600 Descending Jacksonville Center